sensor_id;sensor_type;location;lat;lon;timestamp;P1;durP1;ratioP1;P2;durP2;ratioP2
49590;SDS011;35496;-21.974;-46.800;2023-04-09T00:01:56;2.65;;;1.88;;
49590;SDS011;35496;-21.974;-46.800;2023-04-09T00:04:22;5.90;;;2.90;;
49590;SDS011;35496;-21.974;-46.800;2023-04-09T00:06:48;6.45;;;4.10;;
49590;SDS011;35496;-21.974;-46.800;2023-04-09T00:09:14;12.13;;;4.88;;
49590;SDS011;35496;-21.974;-46.800;2023-04-09T00:11:40;2.78;;;2.05;;
49590;SDS011;35496;-21.974;-46.800;2023-04-09T00:14:06;4.70;;;3.33;;
49590;SDS011;35496;-21.974;-46.800;2023-04-09T00:16:32;8.52;;;4.97;;
49590;SDS011;35496;-21.974;-46.800;2023-04-09T00:18:58;2.90;;;2.15;;
49590;SDS011;35496;-21.974;-46.800;2023-04-09T00:21:25;81.63;;;20.27;;
49590;SDS011;35496;-21.974;-46.800;2023-04-09T00:23:51;4.95;;;3.53;;
49590;SDS011;35496;-21.974;-46.800;2023-04-09T00:26:17;114.90;;;38.15;;
49590;SDS011;35496;-21.974;-46.800;2023-04-09T00:28:43;364.23;;;65.30;;
49590;SDS011;35496;-21.974;-46.800;2023-04-09T00:31:09;236.43;;;63.70;;
49590;SDS011;35496;-21.974;-46.800;2023-04-09T00:33:35;309.45;;;56.13;;
49590;SDS011;35496;-21.974;-46.800;2023-04-09T00:36:01;438.52;;;85.05;;
49590;SDS011;35496;-21.974;-46.800;2023-04-09T00:38:27;13.13;;;8.65;;
49590;SDS011;35496;-21.974;-46.800;2023-04-09T00:40:54;13.77;;;7.22;;
49590;SDS011;35496;-21.974;-46.800;2023-04-09T00:43:20;13.63;;;6.55;;
49590;SDS011;35496;-21.974;-46.800;2023-04-09T00:45:46;11.48;;;4.38;;
49590;SDS011;35496;-21.974;-46.800;2023-04-09T00:48:12;10.35;;;6.85;;
49590;SDS011;35496;-21.974;-46.800;2023-04-09T00:50:38;11.20;;;6.60;;
49590;SDS011;35496;-21.974;-46.800;2023-04-09T00:53:07;17.15;;;8.00;;
49590;SDS011;35496;-21.974;-46.800;2023-04-09T00:55:33;8.27;;;7.43;;
49590;SDS011;35496;-21.974;-46.800;2023-04-09T00:58:00;9.50;;;7.30;;
49590;SDS011;35496;-21.974;-46.800;2023-04-09T01:00:27;8.43;;;7.57;;
49590;SDS011;35496;-21.974;-46.800;2023-04-09T01:02:54;9.35;;;7.57;;
49590;SDS011;35496;-21.974;-46.800;2023-04-09T01:05:21;12.43;;;7.40;;
49590;SDS011;35496;-21.974;-46.800;2023-04-09T01:10:41;19.60;;;11.93;;
49590;SDS011;35496;-21.974;-46.800;2023-04-09T01:13:24;19.33;;;11.32;;
49590;SDS011;35496;-21.974;-46.800;2023-04-09T01:15:54;13.75;;;8.80;;
49590;SDS011;35496;-21.974;-46.800;2023-04-09T01:18:23;9.15;;;7.90;;
49590;SDS011;35496;-21.974;-46.800;2023-04-09T01:20:58;10.77;;;8.73;;
49590;SDS011;35496;-21.974;-46.800;2023-04-09T01:23:31;12.57;;;10.00;;
49590;SDS011;35496;-21.974;-46.800;2023-04-09T01:26:02;9.23;;;8.05;;
49590;SDS011;35496;-21.974;-46.800;2023-04-09T01:28:44;10.63;;;7.05;;
49590;SDS011;35496;-21.974;-46.800;2023-04-09T01:31:14;11.15;;;8.75;;
49590;SDS011;35496;-21.974;-46.800;2023-04-09T01:33:42;10.00;;;7.55;;
49590;SDS011;35496;-21.974;-46.800;2023-04-09T01:36:08;9.95;;;7.38;;
49590;SDS011;35496;-21.974;-46.800;2023-04-09T01:38:35;14.45;;;7.70;;
49590;SDS011;35496;-21.974;-46.800;2023-04-09T01:41:02;15.13;;;8.50;;
49590;SDS011;35496;-21.974;-46.800;2023-04-09T01:43:29;12.60;;;7.57;;
49590;SDS011;35496;-21.974;-46.800;2023-04-09T01:46:00;8.25;;;6.28;;
49590;SDS011;35496;-21.974;-46.800;2023-04-09T01:48:28;8.65;;;7.03;;
49590;SDS011;35496;-21.974;-46.800;2023-04-09T01:50:59;10.77;;;8.18;;
49590;SDS011;35496;-21.974;-46.800;2023-04-09T01:53:25;11.27;;;8.23;;
49590;SDS011;35496;-21.974;-46.800;2023-04-09T01:55:53;9.82;;;7.82;;
49590;SDS011;35496;-21.974;-46.800;2023-04-09T01:58:21;11.27;;;8.65;;
49590;SDS011;35496;-21.974;-46.800;2023-04-09T02:00:49;11.48;;;8.68;;
49590;SDS011;35496;-21.974;-46.800;2023-04-09T02:03:20;12.35;;;8.55;;
49590;SDS011;35496;-21.974;-46.800;2023-04-09T02:08:34;11.90;;;10.38;;
49590;SDS011;35496;-21.974;-46.800;2023-04-09T02:11:01;21.20;;;12.02;;
49590;SDS011;35496;-21.974;-46.800;2023-04-09T02:13:29;12.50;;;8.15;;
49590;SDS011;35496;-21.974;-46.800;2023-04-09T02:15:55;9.60;;;8.60;;
49590;SDS011;35496;-21.974;-46.800;2023-04-09T02:18:23;12.02;;;8.43;;
49590;SDS011;35496;-21.974;-46.800;2023-04-09T02:20:50;15.98;;;8.82;;
49590;SDS011;35496;-21.974;-46.800;2023-04-09T02:23:16;7.75;;;6.65;;
49590;SDS011;35496;-21.974;-46.800;2023-04-09T02:25:43;7.78;;;5.43;;
49590;SDS011;35496;-21.974;-46.800;2023-04-09T02:28:09;10.27;;;4.88;;
49590;SDS011;35496;-21.974;-46.800;2023-04-09T02:30:35;8.77;;;5.65;;
49590;SDS011;35496;-21.974;-46.800;2023-04-09T02:33:01;4.85;;;4.40;;
49590;SDS011;35496;-21.974;-46.800;2023-04-09T02:35:27;5.53;;;4.63;;
49590;SDS011;35496;-21.974;-46.800;2023-04-09T02:37:53;4.32;;;3.35;;
49590;SDS011;35496;-21.974;-46.800;2023-04-09T02:40:20;6.22;;;3.28;;
49590;SDS011;35496;-21.974;-46.800;2023-04-09T02:42:46;2.83;;;2.45;;
49590;SDS011;35496;-21.974;-46.800;2023-04-09T02:45:12;4.75;;;3.20;;
49590;SDS011;35496;-21.974;-46.800;2023-04-09T02:47:38;3.95;;;3.20;;
49590;SDS011;35496;-21.974;-46.800;2023-04-09T02:50:04;6.57;;;3.75;;
49590;SDS011;35496;-21.974;-46.800;2023-04-09T02:52:30;5.38;;;2.88;;
49590;SDS011;35496;-21.974;-46.800;2023-04-09T02:54:56;3.78;;;3.33;;
49590;SDS011;35496;-21.974;-46.800;2023-04-09T02:57:22;3.03;;;2.72;;
49590;SDS011;35496;-21.974;-46.800;2023-04-09T02:59:49;2.70;;;2.50;;
49590;SDS011;35496;-21.974;-46.800;2023-04-09T03:02:15;3.38;;;2.40;;
49590;SDS011;35496;-21.974;-46.800;2023-04-09T03:04:41;3.33;;;2.35;;
49590;SDS011;35496;-21.974;-46.800;2023-04-09T03:07:09;7.15;;;3.58;;
49590;SDS011;35496;-21.974;-46.800;2023-04-09T03:09:38;3.50;;;3.20;;
49590;SDS011;35496;-21.974;-46.800;2023-04-09T03:12:04;3.30;;;2.42;;
49590;SDS011;35496;-21.974;-46.800;2023-04-09T03:14:30;3.00;;;2.20;;
49590;SDS011;35496;-21.974;-46.800;2023-04-09T03:16:56;4.55;;;2.70;;
49590;SDS011;35496;-21.974;-46.800;2023-04-09T03:19:23;7.90;;;3.00;;
49590;SDS011;35496;-21.974;-46.800;2023-04-09T03:21:50;2.15;;;1.92;;
49590;SDS011;35496;-21.974;-46.800;2023-04-09T03:24:16;4.15;;;2.10;;
49590;SDS011;35496;-21.974;-46.800;2023-04-09T03:26:42;4.70;;;2.13;;
49590;SDS011;35496;-21.974;-46.800;2023-04-09T03:29:08;3.55;;;2.42;;
49590;SDS011;35496;-21.974;-46.800;2023-04-09T03:31:34;2.05;;;1.85;;
49590;SDS011;35496;-21.974;-46.800;2023-04-09T03:34:00;6.00;;;2.38;;
49590;SDS011;35496;-21.974;-46.800;2023-04-09T03:36:26;7.95;;;3.38;;
49590;SDS011;35496;-21.974;-46.800;2023-04-09T03:38:53;3.42;;;2.65;;
49590;SDS011;35496;-21.974;-46.800;2023-04-09T03:41:20;3.67;;;2.72;;
49590;SDS011;35496;-21.974;-46.800;2023-04-09T03:43:46;3.47;;;3.17;;
49590;SDS011;35496;-21.974;-46.800;2023-04-09T03:46:15;2.30;;;1.63;;
49590;SDS011;35496;-21.974;-46.800;2023-04-09T03:48:41;6.30;;;2.08;;
49590;SDS011;35496;-21.974;-46.800;2023-04-09T03:51:15;4.80;;;2.40;;
49590;SDS011;35496;-21.974;-46.800;2023-04-09T03:56:07;2.08;;;1.88;;
49590;SDS011;35496;-21.974;-46.800;2023-04-09T03:58:33;4.55;;;1.60;;
49590;SDS011;35496;-21.974;-46.800;2023-04-09T04:01:00;1.85;;;1.67;;
49590;SDS011;35496;-21.974;-46.800;2023-04-09T04:03:26;2.33;;;1.80;;
49590;SDS011;35496;-21.974;-46.800;2023-04-09T04:05:52;2.33;;;1.55;;
49590;SDS011;35496;-21.974;-46.800;2023-04-09T04:08:18;1.77;;;1.67;;
49590;SDS011;35496;-21.974;-46.800;2023-04-09T04:10:44;4.80;;;2.40;;
49590;SDS011;35496;-21.974;-46.800;2023-04-09T04:13:10;3.88;;;2.28;;
49590;SDS011;35496;-21.974;-46.800;2023-04-09T04:15:39;2.28;;;1.83;;
49590;SDS011;35496;-21.974;-46.800;2023-04-09T04:18:06;3.42;;;3.13;;
49590;SDS011;35496;-21.974;-46.800;2023-04-09T04:20:32;2.67;;;2.47;;
49590;SDS011;35496;-21.974;-46.800;2023-04-09T04:22:58;4.50;;;3.25;;
49590;SDS011;35496;-21.974;-46.800;2023-04-09T04:25:24;4.20;;;2.63;;
49590;SDS011;35496;-21.974;-46.800;2023-04-09T04:27:51;3.83;;;3.13;;
49590;SDS011;35496;-21.974;-46.800;2023-04-09T04:30:17;6.93;;;3.20;;
49590;SDS011;35496;-21.974;-46.800;2023-04-09T04:32:43;4.00;;;3.03;;
49590;SDS011;35496;-21.974;-46.800;2023-04-09T04:35:09;3.33;;;2.70;;
49590;SDS011;35496;-21.974;-46.800;2023-04-09T04:37:35;4.70;;;3.53;;
49590;SDS011;35496;-21.974;-46.800;2023-04-09T04:40:01;2.25;;;2.10;;
49590;SDS011;35496;-21.974;-46.800;2023-04-09T04:42:27;4.20;;;2.80;;
49590;SDS011;35496;-21.974;-46.800;2023-04-09T04:44:53;4.30;;;3.70;;
49590;SDS011;35496;-21.974;-46.800;2023-04-09T04:47:20;6.97;;;3.78;;
49590;SDS011;35496;-21.974;-46.800;2023-04-09T04:49:46;4.50;;;4.10;;
49590;SDS011;35496;-21.974;-46.800;2023-04-09T04:52:12;6.32;;;3.20;;
49590;SDS011;35496;-21.974;-46.800;2023-04-09T04:54:38;4.03;;;3.05;;
49590;SDS011;35496;-21.974;-46.800;2023-04-09T04:57:04;3.25;;;2.83;;
49590;SDS011;35496;-21.974;-46.800;2023-04-09T04:59:31;3.72;;;2.72;;
49590;SDS011;35496;-21.974;-46.800;2023-04-09T05:01:57;9.88;;;2.88;;
49590;SDS011;35496;-21.974;-46.800;2023-04-09T05:04:23;2.65;;;2.45;;
49590;SDS011;35496;-21.974;-46.800;2023-04-09T05:06:50;2.42;;;2.20;;
49590;SDS011;35496;-21.974;-46.800;2023-04-09T05:09:16;3.08;;;2.63;;
49590;SDS011;35496;-21.974;-46.800;2023-04-09T05:11:42;6.18;;;3.03;;
49590;SDS011;35496;-21.974;-46.800;2023-04-09T05:14:08;5.65;;;3.08;;
49590;SDS011;35496;-21.974;-46.800;2023-04-09T05:16:34;3.45;;;3.13;;
49590;SDS011;35496;-21.974;-46.800;2023-04-09T05:19:00;3.13;;;2.40;;
49590;SDS011;35496;-21.974;-46.800;2023-04-09T05:21:26;4.20;;;2.53;;
49590;SDS011;35496;-21.974;-46.800;2023-04-09T05:23:52;5.35;;;2.63;;
49590;SDS011;35496;-21.974;-46.800;2023-04-09T05:26:18;2.53;;;2.33;;
49590;SDS011;35496;-21.974;-46.800;2023-04-09T05:28:45;3.03;;;2.25;;
49590;SDS011;35496;-21.974;-46.800;2023-04-09T05:31:11;5.93;;;2.38;;
49590;SDS011;35496;-21.974;-46.800;2023-04-09T05:33:40;5.20;;;2.60;;
49590;SDS011;35496;-21.974;-46.800;2023-04-09T05:36:06;4.88;;;3.13;;
49590;SDS011;35496;-21.974;-46.800;2023-04-09T05:38:32;2.25;;;2.05;;
49590;SDS011;35496;-21.974;-46.800;2023-04-09T05:40:58;3.60;;;3.15;;
49590;SDS011;35496;-21.974;-46.800;2023-04-09T05:43:24;4.10;;;3.15;;
49590;SDS011;35496;-21.974;-46.800;2023-04-09T05:45:50;3.80;;;2.90;;
49590;SDS011;35496;-21.974;-46.800;2023-04-09T05:48:16;3.90;;;3.60;;
49590;SDS011;35496;-21.974;-46.800;2023-04-09T05:50:50;3.60;;;3.00;;
49590;SDS011;35496;-21.974;-46.800;2023-04-09T05:53:17;4.05;;;2.83;;
49590;SDS011;35496;-21.974;-46.800;2023-04-09T05:55:44;3.38;;;3.08;;
49590;SDS011;35496;-21.974;-46.800;2023-04-09T05:58:10;7.47;;;2.95;;
49590;SDS011;35496;-21.974;-46.800;2023-04-09T06:00:36;4.25;;;3.13;;
49590;SDS011;35496;-21.974;-46.800;2023-04-09T06:03:03;4.05;;;3.67;;
49590;SDS011;35496;-21.974;-46.800;2023-04-09T06:05:29;6.13;;;3.30;;
49590;SDS011;35496;-21.974;-46.800;2023-04-09T06:07:55;4.00;;;3.40;;
49590;SDS011;35496;-21.974;-46.800;2023-04-09T06:10:21;3.85;;;2.63;;
49590;SDS011;35496;-21.974;-46.800;2023-04-09T06:12:47;3.78;;;2.60;;
49590;SDS011;35496;-21.974;-46.800;2023-04-09T06:15:13;5.50;;;2.60;;
49590;SDS011;35496;-21.974;-46.800;2023-04-09T06:17:40;3.38;;;2.70;;
49590;SDS011;35496;-21.974;-46.800;2023-04-09T06:20:06;16.85;;;3.22;;
49590;SDS011;35496;-21.974;-46.800;2023-04-09T06:22:32;5.30;;;2.78;;
49590;SDS011;35496;-21.974;-46.800;2023-04-09T06:24:58;11.95;;;2.75;;
49590;SDS011;35496;-21.974;-46.800;2023-04-09T06:27:24;3.40;;;2.72;;
49590;SDS011;35496;-21.974;-46.800;2023-04-09T06:29:50;3.03;;;2.72;;
49590;SDS011;35496;-21.974;-46.800;2023-04-09T06:32:17;3.45;;;2.72;;
49590;SDS011;35496;-21.974;-46.800;2023-04-09T06:34:43;9.52;;;3.78;;
49590;SDS011;35496;-21.974;-46.800;2023-04-09T06:37:09;4.53;;;3.10;;
49590;SDS011;35496;-21.974;-46.800;2023-04-09T06:39:35;7.45;;;3.80;;
49590;SDS011;35496;-21.974;-46.800;2023-04-09T06:42:01;3.53;;;3.22;;
49590;SDS011;35496;-21.974;-46.800;2023-04-09T06:44:28;8.10;;;4.10;;
49590;SDS011;35496;-21.974;-46.800;2023-04-09T06:46:55;4.95;;;3.13;;
49590;SDS011;35496;-21.974;-46.800;2023-04-09T06:49:21;6.78;;;4.00;;
49590;SDS011;35496;-21.974;-46.800;2023-04-09T06:51:47;7.60;;;3.63;;
49590;SDS011;35496;-21.974;-46.800;2023-04-09T06:54:13;5.78;;;4.13;;
49590;SDS011;35496;-21.974;-46.800;2023-04-09T06:56:39;7.40;;;4.75;;
49590;SDS011;35496;-21.974;-46.800;2023-04-09T06:59:05;10.05;;;4.57;;
49590;SDS011;35496;-21.974;-46.800;2023-04-09T07:01:31;4.38;;;3.50;;
49590;SDS011;35496;-21.974;-46.800;2023-04-09T07:03:59;7.18;;;3.83;;
49590;SDS011;35496;-21.974;-46.800;2023-04-09T07:06:25;6.95;;;3.75;;
49590;SDS011;35496;-21.974;-46.800;2023-04-09T07:08:51;4.72;;;3.38;;
49590;SDS011;35496;-21.974;-46.800;2023-04-09T07:11:17;5.63;;;3.67;;
49590;SDS011;35496;-21.974;-46.800;2023-04-09T07:13:43;3.65;;;3.00;;
49590;SDS011;35496;-21.974;-46.800;2023-04-09T07:16:10;9.95;;;4.30;;
49590;SDS011;35496;-21.974;-46.800;2023-04-09T07:18:36;4.22;;;3.47;;
49590;SDS011;35496;-21.974;-46.800;2023-04-09T07:21:02;9.32;;;4.70;;
49590;SDS011;35496;-21.974;-46.800;2023-04-09T07:23:28;7.78;;;4.22;;
49590;SDS011;35496;-21.974;-46.800;2023-04-09T07:25:54;3.92;;;3.33;;
49590;SDS011;35496;-21.974;-46.800;2023-04-09T07:28:20;8.00;;;4.40;;
49590;SDS011;35496;-21.974;-46.800;2023-04-09T07:30:46;3.88;;;3.53;;
49590;SDS011;35496;-21.974;-46.800;2023-04-09T07:33:12;5.70;;;3.83;;
49590;SDS011;35496;-21.974;-46.800;2023-04-09T07:35:38;5.35;;;4.35;;
49590;SDS011;35496;-21.974;-46.800;2023-04-09T07:38:04;6.55;;;4.63;;
49590;SDS011;35496;-21.974;-46.800;2023-04-09T07:40:31;5.25;;;4.60;;
49590;SDS011;35496;-21.974;-46.800;2023-04-09T07:42:59;6.95;;;4.63;;
49590;SDS011;35496;-21.974;-46.800;2023-04-09T07:45:26;7.18;;;4.63;;
49590;SDS011;35496;-21.974;-46.800;2023-04-09T07:47:52;6.22;;;5.10;;
49590;SDS011;35496;-21.974;-46.800;2023-04-09T07:50:18;7.40;;;5.63;;
49590;SDS011;35496;-21.974;-46.800;2023-04-09T07:52:44;7.35;;;6.28;;
49590;SDS011;35496;-21.974;-46.800;2023-04-09T07:55:10;7.55;;;4.32;;
49590;SDS011;35496;-21.974;-46.800;2023-04-09T07:57:36;6.18;;;5.03;;
49590;SDS011;35496;-21.974;-46.800;2023-04-09T08:00:03;6.15;;;5.05;;
49590;SDS011;35496;-21.974;-46.800;2023-04-09T08:02:29;5.43;;;4.38;;
49590;SDS011;35496;-21.974;-46.800;2023-04-09T08:04:55;6.80;;;4.53;;
49590;SDS011;35496;-21.974;-46.800;2023-04-09T08:07:22;7.65;;;3.78;;
49590;SDS011;35496;-21.974;-46.800;2023-04-09T08:09:48;4.53;;;3.85;;
49590;SDS011;35496;-21.974;-46.800;2023-04-09T08:12:14;4.43;;;3.70;;
49590;SDS011;35496;-21.974;-46.800;2023-04-09T08:14:40;4.18;;;3.60;;
49590;SDS011;35496;-21.974;-46.800;2023-04-09T08:17:06;4.35;;;3.75;;
49590;SDS011;35496;-21.974;-46.800;2023-04-09T08:19:32;6.10;;;3.60;;
49590;SDS011;35496;-21.974;-46.800;2023-04-09T08:21:58;5.15;;;3.67;;
49590;SDS011;35496;-21.974;-46.800;2023-04-09T08:24:24;5.47;;;3.88;;
49590;SDS011;35496;-21.974;-46.800;2023-04-09T08:26:51;4.55;;;3.15;;
49590;SDS011;35496;-21.974;-46.800;2023-04-09T08:29:17;4.95;;;3.58;;
49590;SDS011;35496;-21.974;-46.800;2023-04-09T08:31:43;5.28;;;3.25;;
49590;SDS011;35496;-21.974;-46.800;2023-04-09T08:34:09;7.20;;;3.53;;
49590;SDS011;35496;-21.974;-46.800;2023-04-09T08:36:35;4.75;;;3.53;;
49590;SDS011;35496;-21.974;-46.800;2023-04-09T08:39:01;8.07;;;3.88;;
49590;SDS011;35496;-21.974;-46.800;2023-04-09T08:41:28;7.28;;;4.13;;
49590;SDS011;35496;-21.974;-46.800;2023-04-09T08:43:54;3.42;;;3.03;;
49590;SDS011;35496;-21.974;-46.800;2023-04-09T08:46:21;4.63;;;4.18;;
49590;SDS011;35496;-21.974;-46.800;2023-04-09T08:48:47;3.92;;;3.45;;
49590;SDS011;35496;-21.974;-46.800;2023-04-09T08:51:18;5.80;;;3.47;;
49590;SDS011;35496;-21.974;-46.800;2023-04-09T08:53:45;7.00;;;4.82;;
49590;SDS011;35496;-21.974;-46.800;2023-04-09T08:56:12;6.07;;;3.72;;
49590;SDS011;35496;-21.974;-46.800;2023-04-09T08:58:42;4.13;;;3.72;;
49590;SDS011;35496;-21.974;-46.800;2023-04-09T09:01:18;7.20;;;4.28;;
49590;SDS011;35496;-21.974;-46.800;2023-04-09T09:03:56;17.35;;;4.82;;
49590;SDS011;35496;-21.974;-46.800;2023-04-09T09:06:23;4.88;;;3.63;;
49590;SDS011;35496;-21.974;-46.800;2023-04-09T09:11:29;6.50;;;4.75;;
49590;SDS011;35496;-21.974;-46.800;2023-04-09T09:14:03;4.82;;;4.32;;
49590;SDS011;35496;-21.974;-46.800;2023-04-09T09:16:29;7.97;;;5.03;;
49590;SDS011;35496;-21.974;-46.800;2023-04-09T09:18:57;9.75;;;5.38;;
49590;SDS011;35496;-21.974;-46.800;2023-04-09T09:21:24;5.57;;;4.47;;
49590;SDS011;35496;-21.974;-46.800;2023-04-09T09:23:51;9.10;;;6.22;;
49590;SDS011;35496;-21.974;-46.800;2023-04-09T09:26:21;6.68;;;5.80;;
49590;SDS011;35496;-21.974;-46.800;2023-04-09T09:28:49;10.18;;;7.40;;
49590;SDS011;35496;-21.974;-46.800;2023-04-09T09:31:16;11.25;;;7.55;;
49590;SDS011;35496;-21.974;-46.800;2023-04-09T09:33:42;14.20;;;8.07;;
49590;SDS011;35496;-21.974;-46.800;2023-04-09T09:36:09;93.10;;;15.27;;
49590;SDS011;35496;-21.974;-46.800;2023-04-09T09:38:51;92.57;;;15.90;;
49590;SDS011;35496;-21.974;-46.800;2023-04-09T09:41:18;65.47;;;14.63;;
49590;SDS011;35496;-21.974;-46.800;2023-04-09T09:43:44;51.20;;;10.00;;
49590;SDS011;35496;-21.974;-46.800;2023-04-09T09:46:11;12.27;;;8.77;;
49590;SDS011;35496;-21.974;-46.800;2023-04-09T09:48:37;25.65;;;10.23;;
49590;SDS011;35496;-21.974;-46.800;2023-04-09T09:51:12;12.65;;;8.75;;
49590;SDS011;35496;-21.974;-46.800;2023-04-09T09:53:39;11.40;;;8.27;;
49590;SDS011;35496;-21.974;-46.800;2023-04-09T09:56:06;10.45;;;7.97;;
49590;SDS011;35496;-21.974;-46.800;2023-04-09T09:58:58;11.20;;;7.57;;
49590;SDS011;35496;-21.974;-46.800;2023-04-09T10:01:21;23.27;;;7.95;;
49590;SDS011;35496;-21.974;-46.800;2023-04-09T10:03:49;15.88;;;7.93;;
49590;SDS011;35496;-21.974;-46.800;2023-04-09T10:06:16;8.23;;;7.32;;
49590;SDS011;35496;-21.974;-46.800;2023-04-09T10:08:43;7.57;;;6.50;;
49590;SDS011;35496;-21.974;-46.800;2023-04-09T10:11:10;9.40;;;6.05;;
49590;SDS011;35496;-21.974;-46.800;2023-04-09T10:13:45;7.43;;;6.55;;
49590;SDS011;35496;-21.974;-46.800;2023-04-09T10:16:14;9.65;;;6.72;;
49590;SDS011;35496;-21.974;-46.800;2023-04-09T10:18:40;7.50;;;6.30;;
49590;SDS011;35496;-21.974;-46.800;2023-04-09T10:21:22;9.90;;;6.47;;
49590;SDS011;35496;-21.974;-46.800;2023-04-09T10:23:49;7.20;;;5.50;;
49590;SDS011;35496;-21.974;-46.800;2023-04-09T10:26:19;7.28;;;6.13;;
49590;SDS011;35496;-21.974;-46.800;2023-04-09T10:28:45;5.88;;;5.28;;
49590;SDS011;35496;-21.974;-46.800;2023-04-09T10:31:11;8.90;;;6.55;;
49590;SDS011;35496;-21.974;-46.800;2023-04-09T10:33:38;8.48;;;5.60;;
49590;SDS011;35496;-21.974;-46.800;2023-04-09T10:36:06;6.70;;;5.65;;
49590;SDS011;35496;-21.974;-46.800;2023-04-09T10:38:40;6.68;;;5.80;;
49590;SDS011;35496;-21.974;-46.800;2023-04-09T10:43:35;7.47;;;6.20;;
49590;SDS011;35496;-21.974;-46.800;2023-04-09T10:46:03;6.43;;;5.07;;
49590;SDS011;35496;-21.974;-46.800;2023-04-09T10:48:31;6.63;;;6.03;;
49590;SDS011;35496;-21.974;-46.800;2023-04-09T10:50:57;6.78;;;6.15;;
49590;SDS011;35496;-21.974;-46.800;2023-04-09T10:53:24;10.75;;;5.70;;
49590;SDS011;35496;-21.974;-46.800;2023-04-09T10:55:51;6.18;;;5.45;;
49590;SDS011;35496;-21.974;-46.800;2023-04-09T10:58:17;8.43;;;6.32;;
49590;SDS011;35496;-21.974;-46.800;2023-04-09T11:00:47;9.88;;;5.80;;
49590;SDS011;35496;-21.974;-46.800;2023-04-09T11:05:42;7.95;;;6.72;;
49590;SDS011;35496;-21.974;-46.800;2023-04-09T11:08:09;6.38;;;5.63;;
49590;SDS011;35496;-21.974;-46.800;2023-04-09T11:10:43;6.53;;;5.90;;
49590;SDS011;35496;-21.974;-46.800;2023-04-09T11:13:10;5.20;;;4.22;;
49590;SDS011;35496;-21.974;-46.800;2023-04-09T11:15:37;6.35;;;5.45;;
49590;SDS011;35496;-21.974;-46.800;2023-04-09T11:18:03;5.50;;;4.78;;
49590;SDS011;35496;-21.974;-46.800;2023-04-09T11:20:32;7.45;;;4.53;;
49590;SDS011;35496;-21.974;-46.800;2023-04-09T11:22:59;8.05;;;4.43;;
49590;SDS011;35496;-21.974;-46.800;2023-04-09T11:25:26;5.90;;;4.45;;
49590;SDS011;35496;-21.974;-46.800;2023-04-09T11:27:52;5.00;;;4.60;;
49590;SDS011;35496;-21.974;-46.800;2023-04-09T11:30:19;5.28;;;4.78;;
49590;SDS011;35496;-21.974;-46.800;2023-04-09T11:32:45;4.75;;;4.20;;
49590;SDS011;35496;-21.974;-46.800;2023-04-09T11:35:16;7.47;;;5.82;;
49590;SDS011;35496;-21.974;-46.800;2023-04-09T11:37:43;9.15;;;6.03;;
49590;SDS011;35496;-21.974;-46.800;2023-04-09T11:40:16;5.50;;;5.00;;
49590;SDS011;35496;-21.974;-46.800;2023-04-09T11:42:43;6.15;;;5.45;;
49590;SDS011;35496;-21.974;-46.800;2023-04-09T11:45:09;5.45;;;4.57;;
49590;SDS011;35496;-21.974;-46.800;2023-04-09T11:47:36;5.20;;;4.70;;
49590;SDS011;35496;-21.974;-46.800;2023-04-09T11:50:04;5.13;;;4.70;;
49590;SDS011;35496;-21.974;-46.800;2023-04-09T11:52:31;5.40;;;4.90;;
49590;SDS011;35496;-21.974;-46.800;2023-04-09T11:55:03;4.88;;;4.38;;
49590;SDS011;35496;-21.974;-46.800;2023-04-09T11:57:39;4.25;;;3.80;;
49590;SDS011;35496;-21.974;-46.800;2023-04-09T12:00:07;3.92;;;3.60;;
49590;SDS011;35496;-21.974;-46.800;2023-04-09T12:02:36;4.13;;;3.28;;
49590;SDS011;35496;-21.974;-46.800;2023-04-09T12:05:02;3.95;;;3.50;;
49590;SDS011;35496;-21.974;-46.800;2023-04-09T12:07:35;4.00;;;3.70;;
49590;SDS011;35496;-21.974;-46.800;2023-04-09T12:10:02;2.90;;;2.70;;
49590;SDS011;35496;-21.974;-46.800;2023-04-09T12:12:29;3.95;;;3.35;;
49590;SDS011;35496;-21.974;-46.800;2023-04-09T12:14:55;4.63;;;3.38;;
49590;SDS011;35496;-21.974;-46.800;2023-04-09T12:17:23;4.18;;;3.05;;
49590;SDS011;35496;-21.974;-46.800;2023-04-09T12:19:50;3.40;;;2.97;;
49590;SDS011;35496;-21.974;-46.800;2023-04-09T12:22:16;3.63;;;3.33;;
49590;SDS011;35496;-21.974;-46.800;2023-04-09T12:24:42;6.75;;;3.90;;
49590;SDS011;35496;-21.974;-46.800;2023-04-09T12:27:08;4.35;;;3.47;;
49590;SDS011;35496;-21.974;-46.800;2023-04-09T12:29:35;6.20;;;3.67;;
49590;SDS011;35496;-21.974;-46.800;2023-04-09T12:32:01;3.55;;;2.95;;
49590;SDS011;35496;-21.974;-46.800;2023-04-09T12:34:27;4.93;;;3.78;;
49590;SDS011;35496;-21.974;-46.800;2023-04-09T12:36:53;5.65;;;3.75;;
49590;SDS011;35496;-21.974;-46.800;2023-04-09T12:39:19;5.10;;;3.53;;
49590;SDS011;35496;-21.974;-46.800;2023-04-09T12:41:45;4.55;;;3.63;;
49590;SDS011;35496;-21.974;-46.800;2023-04-09T12:44:11;6.90;;;4.20;;
49590;SDS011;35496;-21.974;-46.800;2023-04-09T12:46:37;6.47;;;4.35;;
49590;SDS011;35496;-21.974;-46.800;2023-04-09T12:49:04;5.97;;;4.68;;
49590;SDS011;35496;-21.974;-46.800;2023-04-09T12:51:30;5.22;;;4.80;;
49590;SDS011;35496;-21.974;-46.800;2023-04-09T12:53:57;4.78;;;4.28;;
49590;SDS011;35496;-21.974;-46.800;2023-04-09T12:56:23;4.60;;;4.05;;
49590;SDS011;35496;-21.974;-46.800;2023-04-09T12:58:49;6.80;;;4.53;;
49590;SDS011;35496;-21.974;-46.800;2023-04-09T13:01:15;4.85;;;4.25;;
49590;SDS011;35496;-21.974;-46.800;2023-04-09T13:03:42;5.50;;;4.15;;
49590;SDS011;35496;-21.974;-46.800;2023-04-09T13:06:08;6.55;;;4.25;;
49590;SDS011;35496;-21.974;-46.800;2023-04-09T13:08:34;5.38;;;4.07;;
49590;SDS011;35496;-21.974;-46.800;2023-04-09T13:11:00;6.32;;;4.90;;
49590;SDS011;35496;-21.974;-46.800;2023-04-09T13:13:26;5.47;;;4.75;;
49590;SDS011;35496;-21.974;-46.800;2023-04-09T13:15:53;5.90;;;5.30;;
49590;SDS011;35496;-21.974;-46.800;2023-04-09T13:18:19;6.70;;;5.10;;
49590;SDS011;35496;-21.974;-46.800;2023-04-09T13:20:45;5.60;;;5.03;;
49590;SDS011;35496;-21.974;-46.800;2023-04-09T13:23:11;7.85;;;4.97;;
49590;SDS011;35496;-21.974;-46.800;2023-04-09T13:25:37;6.75;;;5.47;;
49590;SDS011;35496;-21.974;-46.800;2023-04-09T13:28:03;9.48;;;5.03;;
49590;SDS011;35496;-21.974;-46.800;2023-04-09T13:30:29;13.23;;;6.32;;
49590;SDS011;35496;-21.974;-46.800;2023-04-09T13:32:55;5.38;;;4.75;;
49590;SDS011;35496;-21.974;-46.800;2023-04-09T13:35:21;4.82;;;4.38;;
49590;SDS011;35496;-21.974;-46.800;2023-04-09T13:37:47;4.80;;;4.20;;
49590;SDS011;35496;-21.974;-46.800;2023-04-09T13:40:13;5.57;;;4.85;;
49590;SDS011;35496;-21.974;-46.800;2023-04-09T13:42:40;7.10;;;4.38;;
49590;SDS011;35496;-21.974;-46.800;2023-04-09T13:45:06;7.47;;;6.28;;
49590;SDS011;35496;-21.974;-46.800;2023-04-09T13:47:32;7.95;;;7.15;;
49590;SDS011;35496;-21.974;-46.800;2023-04-09T13:49:58;11.68;;;9.38;;
49590;SDS011;35496;-21.974;-46.800;2023-04-09T13:52:24;11.82;;;9.48;;
49590;SDS011;35496;-21.974;-46.800;2023-04-09T13:54:50;18.73;;;13.98;;
49590;SDS011;35496;-21.974;-46.800;2023-04-09T13:57:18;16.48;;;12.73;;
49590;SDS011;35496;-21.974;-46.800;2023-04-09T13:59:47;12.48;;;9.85;;
49590;SDS011;35496;-21.974;-46.800;2023-04-09T14:02:13;11.68;;;7.97;;
49590;SDS011;35496;-21.974;-46.800;2023-04-09T14:04:39;11.68;;;8.57;;
49590;SDS011;35496;-21.974;-46.800;2023-04-09T14:07:05;11.23;;;6.95;;
49590;SDS011;35496;-21.974;-46.800;2023-04-09T14:09:31;10.23;;;9.20;;
49590;SDS011;35496;-21.974;-46.800;2023-04-09T14:11:57;14.93;;;11.85;;
49590;SDS011;35496;-21.974;-46.800;2023-04-09T14:14:23;8.90;;;8.10;;
49590;SDS011;35496;-21.974;-46.800;2023-04-09T14:16:50;4.68;;;4.05;;
49590;SDS011;35496;-21.974;-46.800;2023-04-09T14:19:16;7.78;;;6.22;;
49590;SDS011;35496;-21.974;-46.800;2023-04-09T14:21:42;6.18;;;5.63;;